Time;durP1;ratioP1;P1;durP2;ratioP2;P2;SDS_P1;SDS_P2;PMS_P1;PMS_P2;Temp;Humidity;BMP_temperature;BMP_pressure;BME280_temperature;BME280_humidity;BME280_pressure;Samples;Min_cycle;Max_cycle;Signal;HPM_P1;HPM_P2
2022/04/04 00:02:23;;;;;;;49.80;24.40;;;;;;;-1.05;74.75;98472.73;105993;1277;138170;-68
2022/04/04 00:05:04;;;;;;;47.90;23.70;;;;;;;-1.06;74.60;98469.67;105807;1280;24260;-68
2022/04/04 00:07:31;;;;;;;51.30;24.70;;;;;;;-1.08;74.64;98472.02;105658;1277;137898;-68
2022/04/04 00:10:12;;;;;;;45.30;22.80;;;;;;;-1.09;74.58;98472.08;105716;1279;22559;-69
2022/04/04 00:12:53;;;;;;;46.90;22.40;;;;;;;-1.07;74.54;98469.98;105966;1279;138310;-69
2022/04/04 00:15:21;;;;;;;48.10;21.50;;;;;;;-1.05;74.39;98470.10;105654;1280;22594;-69
2022/04/04 00:17:48;;;;;;;43.80;22.00;;;;;;;-1.04;74.61;98470.91;105732;1279;25247;-69
2022/04/04 00:20:15;;;;;;;41.50;21.20;;;;;;;-1.03;74.49;98465.98;105853;1277;137720;-69
2022/04/04 00:22:43;;;;;;;39.00;21.50;;;;;;;-1.04;74.23;98465.02;105950;1277;24299;-69
2022/04/04 00:25:24;;;;;;;44.30;20.50;;;;;;;-1.05;74.11;98469.94;105822;1277;138049;-69
2022/04/04 00:28:05;;;;;;;37.80;18.80;;;;;;;-1.08;74.24;98468.13;105913;1277;25391;-69
2022/04/04 00:30:33;;;;;;;33.80;18.80;;;;;;;-1.11;73.95;98468.84;105639;1279;137794;-68
2022/04/04 00:33:00;;;;;;;40.50;20.40;;;;;;;-1.14;74.22;98464.52;105909;1279;24392;-68
2022/04/04 00:35:27;;;;;;;36.60;20.30;;;;;;;-1.16;73.77;98464.02;106010;1277;25250;-70
2022/04/04 00:38:10;;;;;;;38.90;20.70;;;;;;;-1.15;74.03;98467.29;105851;1279;138848;-70
2022/04/04 00:40:38;;;;;;;35.50;19.40;;;;;;;-1.14;73.86;98466.08;105949;1277;22570;-70
2022/04/04 00:43:08;;;;;;;33.80;17.80;;;;;;;-1.16;73.80;98461.61;106169;1277;138021;-68
2022/04/04 00:45:35;;;;;;;36.50;18.40;;;;;;;-1.16;73.67;98459.04;105944;1277;22541;-68
2022/04/04 00:48:03;;;;;;;33.40;18.20;;;;;;;-1.18;73.61;98459.54;106066;1277;22569;-70
2022/04/04 00:50:30;;;;;;;31.80;17.10;;;;;;;-1.20;73.74;98464.98;105769;1277;137688;-70
2022/04/04 00:52:56;;;;;;;36.50;17.90;;;;;;;-1.23;73.88;98462.05;105899;1277;22621;-68
2022/04/04 00:55:38;;;;;;;35.90;19.30;;;;;;;-1.26;73.96;98459.18;105908;1277;137836;-69
2022/04/04 00:58:05;;;;;;;37.20;19.90;;;;;;;-1.28;73.97;98456.65;106050;1277;22598;-68
2022/04/04 01:00:32;;;;;;;32.20;17.80;;;;;;;-1.29;74.05;98457.81;105806;1277;138478;-69
2022/04/04 01:03:15;;;;;;;30.40;16.70;;;;;;;-1.28;73.93;98458.20;105857;1277;25359;-69
2022/04/04 01:05:44;;;;;;;30.30;16.50;;;;;;;-1.26;74.01;98455.35;106055;1277;24205;-69
2022/04/04 01:08:12;;;;;;;;;;;;;;;-1.25;73.81;98454.61;105973;1277;137826;-69
2022/04/04 01:10:53;;;;;;;26.80;14.10;;;;;;;-1.24;73.70;98454.38;105882;1277;23915;-69
2022/04/04 01:13:34;;;;;;;29.20;16.00;;;;;;;-1.24;73.68;98458.69;106002;1277;137762;-69
2022/04/04 01:16:16;;;;;;;30.40;15.90;;;;;;;-1.25;73.79;98454.30;105952;1277;22544;-69
2022/04/04 01:18:57;;;;;;;32.30;14.20;;;;;;;-1.27;73.59;98450.80;105848;1277;138570;-69
2022/04/04 01:21:38;;;;;;;27.00;13.80;;;;;;;-1.29;73.39;98450.34;105949;1277;22705;-68
2022/04/04 01:24:20;;;;;;;27.80;16.10;;;;;;;-1.32;73.74;98445.06;106011;1277;22630;-68
2022/04/04 01:27:01;;;;;;;32.20;16.40;;;;;;;-1.34;73.79;98448.11;105851;1280;138107;-69
2022/04/04 01:29:42;;;;;;;26.30;16.50;;;;;;;-1.32;73.62;98445.98;105981;1278;22478;-69
2022/04/04 01:32:09;;;;;;;25.60;14.70;;;;;;;-1.28;73.56;98445.27;105958;1277;138128;-69
2022/04/04 01:34:52;;;;;;;28.10;14.60;;;;;;;-1.26;73.55;98439.38;105872;1277;25368;-69
2022/04/04 01:37:33;;;;;;;25.80;15.00;;;;;;;-1.23;73.55;98436.27;105826;1277;138134;-68
2022/04/04 01:40:00;;;;;;;28.30;14.50;;;;;;;-1.22;73.41;98433.30;105890;1277;24244;-69
2022/04/04 01:42:41;;;;;;;28.80;14.30;;;;;;;-1.22;73.53;98432.92;105916;1277;23177;-69
2022/04/04 01:48:23;;;;;;;27.70;14.20;;;;;;;-1.22;73.58;98424.73;105841;1276;25339;-68
2022/04/04 01:51:05;;;;;;;22.80;12.50;;;;;;;-1.24;73.53;98422.69;105734;1277;137766;-68
2022/04/04 01:53:33;;;;;;;25.60;14.00;;;;;;;-1.26;73.53;98419.19;105981;1277;23273;-69
2022/04/04 01:56:15;;;;;;;24.00;13.80;;;;;;;-1.28;73.47;98417.55;105820;1278;138827;-69
2022/04/04 01:58:42;;;;;;;20.10;12.20;;;;;;;-1.27;73.22;98419.12;105859;1276;24264;-68
2022/04/04 02:01:14;;;;;;;21.70;11.30;;;;;;;-1.25;73.26;98424.62;105995;1276;137846;-68
2022/04/04 02:03:56;;;;;;;25.20;13.30;;;;;;;-1.25;72.97;98426.02;105908;1277;24312;-69
2022/04/04 02:06:24;;;;;;;30.10;12.60;;;;;;;-1.27;72.89;98421.22;106025;1277;22544;-69
2022/04/04 02:09:05;;;;;;;24.70;13.40;;;;;;;-1.28;72.88;98417.41;105783;1277;137573;-69
2022/04/04 02:11:49;;;;;;;25.40;12.70;;;;;;;-1.29;72.98;98415.41;105868;1277;22558;-69
2022/04/04 02:14:30;;;;;;;23.50;12.30;;;;;;;-1.32;72.92;98413.24;105849;1277;137622;-69
2022/04/04 02:17:11;;;;;;;23.30;12.10;;;;;;;-1.35;72.91;98414.63;105547;1279;22738;-69
2022/04/04 02:19:38;;;;;;;25.60;12.90;;;;;;;-1.39;72.97;98415.36;105718;1277;137816;-69
2022/04/04 02:22:19;;;;;;;29.90;13.80;;;;;;;-1.41;72.89;98411.50;105799;1277;25252;-69
2022/04/04 02:25:00;;;;;;;28.40;14.50;;;;;;;-1.42;73.10;98410.56;105657;1277;22544;-69
2022/04/04 02:27:28;;;;;;;24.00;12.60;;;;;;;-1.43;73.18;98409.39;105849;1277;139801;-69
2022/04/04 02:29:57;;;;;;;21.80;11.50;;;;;;;-1.40;72.95;98405.41;105750;1278;25244;-69
2022/04/04 02:32:24;;;;;;;20.30;11.00;;;;;;;-1.39;72.86;98399.04;105727;1277;137744;-69
2022/04/04 02:34:51;;;;;;;20.70;10.90;;;;;;;-1.38;72.98;98397.98;105766;1277;25603;-69
2022/04/04 02:37:32;;;;;;;18.70;10.80;;;;;;;-1.37;72.93;98396.80;105830;1277;137916;-69
2022/04/04 02:40:19;;;;;;;18.20;11.10;;;;;;;-1.37;73.23;98396.47;105831;1277;22532;-68
2022/04/04 02:43:02;;;;;;;21.10;11.50;;;;;;;-1.38;73.20;98390.49;105848;1280;22807;-69
2022/04/04 02:45:43;;;;;;;26.00;13.20;;;;;;;-1.39;73.23;98389.71;105795;1277;137687;-69
2022/04/04 02:48:24;;;;;;;20.10;10.30;;;;;;;-1.41;73.23;98391.02;105789;1277;23415;-69
2022/04/04 02:50:52;;;;;;;18.40;10.40;;;;;;;-1.43;73.31;98393.06;105733;1277;137827;-69
2022/04/04 02:53:19;;;;;;;17.30;9.70;;;;;;;-1.43;73.08;98394.38;105825;1277;22556;-69
2022/04/04 02:58:32;;;;;;;18.40;9.30;;;;;;;-1.42;73.13;98389.39;105788;1277;22858;-69
2022/04/04 03:01:15;;;;;;;13.70;8.70;;;;;;;-1.41;72.92;98384.85;105763;1278;24450;-68
2022/04/04 03:03:42;;;;;;;13.60;8.40;;;;;;;-1.42;73.25;98383.18;105989;1277;137229;-68
2022/04/04 03:06:23;;;;;;;12.50;7.70;;;;;;;-1.43;72.89;98381.84;105991;1277;24434;-69
2022/04/04 03:09:04;;;;;;;14.70;8.20;;;;;;;-1.45;72.87;98377.32;105852;1277;137586;-69
2022/04/04 03:11:31;;;;;;;15.20;8.40;;;;;;;-1.47;72.96;98381.46;105976;1278;22573;-69
2022/04/04 03:13:58;;;;;;;12.90;7.60;;;;;;;-1.51;73.08;98383.44;105773;1277;138045;-68
2022/04/04 03:16:25;;;;;;;14.00;8.20;;;;;;;-1.52;72.90;98385.75;105778;1278;25265;-68
2022/04/04 03:18:54;;;;;;;15.90;9.00;;;;;;;-1.57;72.94;98385.27;106031;1277;25241;-69
2022/04/04 03:21:22;;;;;;;13.80;9.10;;;;;;;-1.58;73.09;98388.52;105822;1277;138965;-68
2022/04/04 03:23:49;;;;;;;12.50;7.50;;;;;;;-1.57;73.12;98385.02;105904;1277;25394;-68
2022/04/04 03:26:16;;;;;;;15.20;8.90;;;;;;;-1.55;73.35;98383.17;105763;1278;137963;-68
2022/04/04 03:28:57;;;;;;;14.80;8.10;;;;;;;-1.52;73.48;98385.19;105723;1280;24269;-68
2022/04/04 03:31:25;;;;;;;15.70;9.20;;;;;;;-1.51;73.41;98384.34;105736;1277;137652;-69
2022/04/04 03:33:52;;;;;;;18.00;8.70;;;;;;;-1.51;73.30;98384.15;106098;1277;26490;-69
2022/04/04 03:36:33;;;;;;;14.90;8.50;;;;;;;-1.51;73.15;98385.27;105823;1277;25477;-68
2022/04/04 03:39:00;;;;;;;15.70;8.50;;;;;;;-1.54;73.16;98387.24;105720;1277;137617;-70
2022/04/04 03:41:43;;;;;;;15.40;8.50;;;;;;;-1.55;73.15;98383.88;105734;1277;25242;-68
2022/04/04 03:44:12;;;;;;;14.70;8.70;;;;;;;-1.58;73.06;98385.85;105725;1277;137712;-68
2022/04/04 03:46:53;;;;;;;16.90;9.80;;;;;;;-1.63;72.92;98383.14;105722;1280;22608;-68
2022/04/04 03:49:34;;;;;;;18.40;9.10;;;;;;;-1.64;73.04;98381.72;105608;1280;138574;-69
2022/04/04 03:52:15;;;;;;;17.60;8.10;;;;;;;-1.65;72.83;98378.95;105716;1281;23944;-68
2022/04/04 03:54:56;;;;;;;15.20;8.50;;;;;;;-1.65;72.83;98382.89;105693;1278;30252;-69
2022/04/04 03:57:27;;;;;;;16.70;8.70;;;;;;;-1.66;72.90;98379.93;105706;1277;137633;-68
2022/04/04 04:00:09;;;;;;;15.40;8.20;;;;;;;-1.68;72.85;98378.19;105749;1277;22597;-68
2022/04/04 04:02:51;;;;;;;17.10;9.30;;;;;;;-1.70;72.77;98379.89;105750;1277;137441;-69
2022/04/04 04:05:18;;;;;;;14.80;8.00;;;;;;;-1.75;72.72;98377.39;105791;1277;22552;-70
2022/04/04 04:07:45;;;;;;;15.20;8.40;;;;;;;-1.81;72.37;98381.53;105928;1277;137738;-70
2022/04/04 04:10:26;;;;;;;15.30;8.70;;;;;;;-1.88;72.28;98379.24;105874;1277;22754;-70
2022/04/04 04:13:07;;;;;;;14.40;7.50;;;;;;;-1.94;72.49;98377.27;105904;1277;22643;-71
2022/04/04 04:15:34;;;;;;;14.80;9.70;;;;;;;-2.00;72.31;98373.13;105473;1278;139283;-70
2022/04/04 04:18:01;;;;;;;18.00;10.20;;;;;;;-2.03;72.58;98378.67;105758;1277;22740;-70
2022/04/04 04:20:35;;;;;;;19.30;10.50;;;;;;;-2.05;72.60;98376.30;105558;1277;137967;-69
2022/04/04 04:23:08;;;;;;;18.60;9.20;;;;;;;-2.05;72.48;98376.93;106114;1277;24284;-70
2022/04/04 04:25:49;;;;;;;16.60;8.80;;;;;;;-2.06;72.40;98372.61;105977;1278;137721;-70
2022/04/04 04:28:31;;;;;;;17.80;9.10;;;;;;;-2.08;72.55;98377.86;105981;1277;22546;-70
2022/04/04 04:31:16;;;;;;;15.20;8.30;;;;;;;-2.10;72.46;98375.57;105825;1277;26533;-71
2022/04/04 04:33:57;;;;;;;18.20;9.10;;;;;;;-2.12;72.85;98380.08;105779;1278;137496;-69
2022/04/04 04:36:39;;;;;;;15.30;9.00;;;;;;;-2.15;72.72;98381.84;105835;1277;25426;-69
2022/04/04 04:39:07;;;;;;;19.60;9.90;;;;;;;-2.16;73.00;98383.04;105686;1278;137529;-68
2022/04/04 04:41:48;;;;;;;15.30;9.40;;;;;;;-2.18;73.05;98384.84;105673;1281;22541;-68
2022/04/04 04:44:18;;;;;;;16.80;9.30;;;;;;;-2.16;73.17;98386.61;105502;1278;138349;-69
2022/04/04 04:46:59;;;;;;;17.90;9.70;;;;;;;-2.13;73.22;98382.04;105676;1278;22544;-69
2022/04/04 04:49:42;;;;;;;28.20;11.50;;;;;;;-2.11;73.07;98382.28;105859;1277;137708;-70
2022/04/04 04:52:25;;;;;;;20.20;10.90;;;;;;;-2.07;73.19;98386.21;105837;1277;23960;-69
2022/04/04 04:55:09;;;;;;;21.80;11.20;;;;;;;-2.06;73.25;98378.61;105784;1278;22569;-69
2022/04/04 04:57:36;;;;;;;17.50;10.40;;;;;;;-2.04;73.22;98379.52;105781;1277;137635;-69
2022/04/04 05:00:19;;;;;;;23.00;14.10;;;;;;;-2.05;73.09;98383.27;105860;1277;24218;-69
2022/04/04 05:06:00;;;;;;;23.30;12.70;;;;;;;-2.06;73.35;98387.11;105675;1277;24065;-69
2022/04/04 05:08:41;;;;;;;21.40;12.60;;;;;;;-2.06;73.37;98391.41;105635;1277;137603;-69
2022/04/04 05:11:24;;;;;;;23.90;12.20;;;;;;;-2.09;73.49;98385.67;105665;1278;22560;-70
2022/04/04 05:14:05;;;;;;;18.40;10.90;;;;;;;-2.05;73.46;98389.17;105539;1278;138670;-70
2022/04/04 05:16:32;;;;;;;17.30;10.40;;;;;;;-2.01;73.30;98381.30;105921;1278;25369;-69
2022/04/04 05:19:19;;;;;;;17.70;9.70;;;;;;;-1.97;73.03;98380.77;106063;1277;22617;-68
2022/04/04 05:22:00;;;;;;;17.30;9.80;;;;;;;-1.93;73.30;98379.77;105672;1278;137247;-68
2022/04/04 05:24:41;;;;;;;19.80;10.20;;;;;;;-1.86;73.29;98378.08;105934;1277;22545;-69
2022/04/04 05:27:22;;;;;;;17.40;9.80;;;;;;;-1.82;72.98;98378.99;105818;1278;137680;-68
2022/04/04 05:30:03;;;;;;;17.70;11.20;;;;;;;-1.79;72.73;98377.13;105980;1277;25330;-68
2022/04/04 05:32:30;;;;;;;20.40;10.40;;;;;;;-1.77;72.72;98377.05;105800;1277;137869;-69
2022/04/04 05:35:12;;;;;;;21.20;9.90;;;;;;;-1.76;72.32;98380.76;105639;1281;22695;-69
2022/04/04 05:37:39;;;;;;;15.50;9.20;;;;;;;-1.74;72.01;98380.97;105834;1277;138361;-69
2022/04/04 05:40:21;;;;;;;17.50;9.90;;;;;;;-1.72;71.67;98383.61;105719;1277;24383;-71
2022/04/04 05:43:02;;;;;;;18.00;10.20;;;;;;;-1.71;71.52;98383.50;105638;1281;22541;-67
2022/04/04 05:45:30;;;;;;;17.80;9.90;;;;;;;-1.69;71.29;98382.96;105836;1277;137986;-69
2022/04/04 05:48:11;;;;;;;19.40;10.00;;;;;;;-1.66;71.22;98384.73;105663;1278;22598;-69
2022/04/04 05:50:53;;;;;;;18.30;9.50;;;;;;;-1.63;70.77;98381.77;105583;1277;138299;-70
2022/04/04 05:53:20;;;;;;;15.60;8.50;;;;;;;-1.58;70.79;98384.24;105909;1277;24266;-70
2022/04/04 05:56:02;;;;;;;14.60;8.40;;;;;;;-1.54;70.28;98383.23;105742;1278;138147;-70
2022/04/04 05:58:43;;;;;;;13.50;7.30;;;;;;;-1.46;70.31;98384.33;105566;1280;23200;-71
2022/04/04 06:01:10;;;;;;;13.30;7.50;;;;;;;-1.37;69.77;98383.52;105682;1277;25384;-70
2022/04/04 06:03:51;;;;;;;13.30;7.80;;;;;;;-1.28;69.09;98385.00;105663;1277;137318;-71
2022/04/04 06:06:32;;;;;;;13.90;8.00;;;;;;;-1.18;69.44;98386.02;105928;1278;23941;-68
2022/04/04 06:09:00;;;;;;;13.20;8.10;;;;;;;-1.07;69.12;98382.85;105625;1281;137591;-70
2022/04/04 06:11:41;;;;;;;13.20;7.40;;;;;;;-0.93;68.52;98382.58;105690;1279;22566;-70
2022/04/04 06:14:08;;;;;;;11.90;7.60;;;;;;;-0.83;68.08;98383.67;105723;1280;138099;-70
2022/04/04 06:16:49;;;;;;;12.00;7.20;;;;;;;-0.72;67.26;98383.38;106234;1277;24438;-70
2022/04/04 06:19:16;;;;;;;11.90;6.70;;;;;;;-0.63;66.68;98386.98;105938;1277;22541;-68
2022/04/04 06:21:44;;;;;;;14.00;8.10;;;;;;;-0.53;66.58;98379.73;105707;1277;137508;-71
2022/04/04 06:24:11;;;;;;;13.00;8.10;;;;;;;-0.43;66.07;98378.08;106059;1277;22569;-71
2022/04/04 06:26:39;;;;;;;14.60;7.90;;;;;;;-0.35;66.29;98376.25;105454;1278;137866;-69
2022/04/04 06:29:09;;;;;;;11.90;7.50;;;;;;;-0.27;65.65;98371.27;106130;1277;22556;-69
2022/04/04 06:31:53;;;;;;;13.60;7.60;;;;;;;-0.19;65.34;98369.09;105686;1277;137662;-71
2022/04/04 06:34:20;;;;;;;14.10;8.50;;;;;;;-0.13;65.24;98366.94;105941;1277;22543;-68
2022/04/04 06:37:01;;;;;;;15.70;8.80;;;;;;;-0.07;64.73;98365.05;106126;1277;22765;-70
2022/04/04 06:39:28;;;;;;;13.90;8.40;;;;;;;-0.04;64.51;98363.75;105991;1277;137654;-71
2022/04/04 06:42:09;;;;;;;14.60;8.90;;;;;;;-0.03;64.42;98362.86;106019;1277;22539;-70
2022/04/04 06:44:50;;;;;;;13.10;8.30;;;;;;;-0.03;64.41;98356.32;105959;1277;138050;-71
2022/04/04 06:47:17;;;;;;;16.00;8.30;;;;;;;-0.04;64.27;98355.69;106130;1277;23765;-70
2022/04/04 06:49:44;;;;;;;17.40;8.80;;;;;;;0.00;64.22;98357.89;106100;1277;137693;-70
2022/04/04 06:52:26;;;;;;;13.30;8.40;;;;;;;0.06;64.10;98362.80;106080;1277;22599;-69
2022/04/04 06:54:55;;;;;;;14.60;8.40;;;;;;;0.10;63.82;98363.90;105854;1278;22604;-69
2022/04/04 06:57:24;;;;;;;13.20;7.80;;;;;;;0.15;63.42;98363.30;106026;1277;137893;-69
2022/04/04 07:00:08;;;;;;;14.30;8.80;;;;;;;0.22;63.49;98362.53;105869;1280;22624;-69
2022/04/04 07:02:36;;;;;;;15.20;8.70;;;;;;;0.30;63.75;98365.10;106006;1279;137409;-69
2022/04/04 07:05:05;;;;;;;19.80;9.10;;;;;;;0.38;63.48;98369.71;105736;1281;22544;-68
2022/04/04 07:07:46;;;;;;;17.70;9.40;;;;;;;0.44;62.77;98365.95;105698;1277;137953;-69
2022/04/04 07:10:14;;;;;;;13.10;8.30;;;;;;;0.50;62.89;98369.16;106104;1277;25372;-69
2022/04/04 07:12:42;;;;;;;13.70;7.80;;;;;;;0.58;62.28;98372.20;106026;1277;22535;-69
2022/04/04 07:15:23;;;;;;;17.20;9.60;;;;;;;0.63;61.94;98367.26;105953;1277;137773;-68
2022/04/04 07:18:04;;;;;;;11.30;8.00;;;;;;;0.70;62.07;98361.63;105860;1277;22726;-69
2022/04/04 07:20:45;;;;;;;16.60;8.50;;;;;;;0.79;62.11;98355.80;106208;1277;137461;-70
2022/04/04 07:23:13;;;;;;;12.90;8.20;;;;;;;0.86;61.60;98360.74;106225;1277;22582;-70
2022/04/04 07:25:54;;;;;;;15.90;9.00;;;;;;;0.94;61.01;98358.05;105690;1277;138099;-70
2022/04/04 07:28:22;;;;;;;16.20;8.50;;;;;;;1.01;60.94;98353.30;106222;1277;23095;-71
2022/04/04 07:31:06;;;;;;;16.50;8.90;;;;;;;1.10;61.05;98346.41;105405;1277;927369;-69
2022/04/04 07:33:33;;;;;;;12.20;7.80;;;;;;;1.20;61.24;98348.64;105805;1277;137594;-68
2022/04/04 07:36:00;;;;;;;14.00;8.60;;;;;;;1.29;60.47;98349.57;106017;1277;22573;-70
2022/04/04 07:38:27;;;;;;;15.10;7.50;;;;;;;1.33;59.76;98332.40;106268;1277;137915;-70
2022/04/04 07:41:08;;;;;;;13.90;8.30;;;;;;;1.39;60.18;98328.33;105886;1277;22694;-71
2022/04/04 07:43:35;;;;;;;11.40;7.70;;;;;;;1.47;60.55;98327.45;105860;1277;137526;-69
2022/04/04 07:46:03;;;;;;;14.60;8.20;;;;;;;1.55;59.77;98330.42;105823;1277;25520;-70
2022/04/04 07:48:45;;;;;;;12.90;8.50;;;;;;;1.61;59.60;98330.36;106015;1277;23632;-72
2022/04/04 07:51:13;;;;;;;11.40;8.20;;;;;;;1.69;59.69;98326.23;106065;1277;137409;-71
2022/04/04 07:53:54;;;;;;;15.00;8.40;;;;;;;1.78;59.79;98324.74;106170;1277;22601;-70
2022/04/04 07:56:21;;;;;;;14.90;9.10;;;;;;;1.87;60.16;98321.02;105879;1278;137561;-70
2022/04/04 07:59:02;;;;;;;10.00;7.20;;;;;;;2.00;60.59;98319.40;106536;1277;23386;-70
2022/04/04 08:01:29;;;;;;;10.70;8.10;;;;;;;2.14;59.83;98320.20;106537;1277;22550;-70
2022/04/04 08:03:57;;;;;;;12.60;7.50;;;;;;;2.26;59.27;98326.32;106247;1277;137671;-69
2022/04/04 08:06:24;;;;;;;11.20;8.10;;;;;;;2.38;58.77;98327.39;106689;1276;24325;-70
2022/04/04 08:08:51;;;;;;;12.20;7.60;;;;;;;2.48;58.24;98331.27;106293;1277;137635;-70
2022/04/04 08:11:32;;;;;;;13.60;8.80;;;;;;;2.48;57.15;98322.88;106505;1277;22551;-70
2022/04/04 08:14:13;;;;;;;12.30;8.30;;;;;;;2.49;57.29;98322.23;106299;1278;137745;-70
2022/04/04 08:16:40;;;;;;;15.90;8.60;;;;;;;2.56;57.12;98319.84;106282;1277;25376;-70
2022/04/04 08:19:08;;;;;;;13.90;7.40;;;;;;;2.64;56.84;98324.89;106444;1277;22588;-70
2022/04/04 08:21:35;;;;;;;12.00;8.80;;;;;;;2.70;56.78;98321.61;106632;1277;137639;-70
2022/04/04 08:24:16;;;;;;;13.10;7.40;;;;;;;2.78;56.69;98320.39;106474;1277;22692;-69
2022/04/04 08:26:43;;;;;;;16.90;7.90;;;;;;;2.91;56.68;98320.57;106277;1277;137415;-70
2022/04/04 08:29:11;;;;;;;14.60;8.70;;;;;;;3.06;56.61;98315.38;106682;1277;22588;-69
2022/04/04 08:31:39;;;;;;;11.50;7.90;;;;;;;3.22;56.78;98311.88;106434;1277;137647;-69
2022/04/04 08:34:07;;;;;;;10.80;7.70;;;;;;;3.36;56.75;98303.61;106611;1279;24256;-71
2022/04/04 08:36:47;;;;;;;11.70;8.10;;;;;;;3.46;56.56;98302.94;106263;1279;22620;-70
2022/04/04 08:39:14;;;;;;;10.40;7.50;;;;;;;3.55;56.05;98299.56;106121;1277;137363;-69
2022/04/04 08:41:56;;;;;;;10.10;6.70;;;;;;;3.59;55.81;98298.58;106274;1277;22588;-69
2022/04/04 08:44:24;;;;;;;10.20;7.30;;;;;;;3.60;55.66;98300.70;106310;1277;137511;-69
2022/04/04 08:47:06;;;;;;;12.30;8.00;;;;;;;3.59;55.38;98302.55;106039;1278;22563;-71
2022/04/04 08:49:49;;;;;;;11.30;7.90;;;;;;;3.59;55.61;98297.64;107183;1277;137519;-71
2022/04/04 08:52:16;;;;;;;8.50;7.10;;;;;;;3.63;55.53;98301.95;106288;1277;22767;-71
2022/04/04 08:54:43;;;;;;;10.60;7.90;;;;;;;3.66;55.41;98299.30;106040;1277;25248;-69
2022/04/04 08:57:10;;;;;;;11.20;7.30;;;;;;;3.79;56.26;98297.04;105985;1277;138355;-69
2022/04/04 08:59:38;;;;;;;11.00;7.10;;;;;;;3.92;56.31;98295.64;106393;1277;22591;-69
2022/04/04 09:02:06;;;;;;;13.50;7.30;;;;;;;4.00;56.10;98291.46;105788;1277;137947;-69
2022/04/04 09:04:33;;;;;;;9.70;7.00;;;;;;;4.07;55.92;98299.22;105971;1277;25518;-69
2022/04/04 09:07:06;;;;;;;10.10;7.20;;;;;;;4.11;55.40;98292.33;106096;1277;23291;-69
2022/04/04 09:09:52;;;;;;;11.50;9.30;;;;;;;4.11;55.08;98293.58;105919;1277;137342;-69
2022/04/04 09:12:22;;;;;;;11.30;6.80;;;;;;;4.10;55.42;98293.00;106035;1277;23354;-69
2022/04/04 09:15:03;;;;;;;8.60;6.50;;;;;;;4.05;55.12;98287.98;105903;1277;137745;-69
2022/04/04 09:17:33;;;;;;;10.50;6.10;;;;;;;4.02;55.59;98285.13;105889;1277;22852;-69
2022/04/04 09:20:10;;;;;;;9.30;7.80;;;;;;;4.01;55.46;98288.85;106264;1277;137590;-69
2022/04/04 09:22:52;;;;;;;12.30;6.90;;;;;;;3.97;55.97;98282.05;106222;1277;22554;-68
2022/04/04 09:25:31;;;;;;;11.50;7.20;;;;;;;3.92;56.00;98279.73;106416;1277;23402;-69
2022/04/04 09:28:14;;;;;;;9.10;6.10;;;;;;;3.88;56.11;98275.00;106005;1277;137473;-69
2022/04/04 09:30:43;;;;;;;11.00;7.30;;;;;;;3.86;56.23;98272.59;105995;1277;24300;-68
2022/04/04 09:33:13;;;;;;;9.50;6.10;;;;;;;3.83;56.43;98271.19;106136;1277;137517;-68
2022/04/04 09:35:46;;;;;;;10.10;7.30;;;;;;;3.81;56.85;98267.25;106118;1277;23394;-68
2022/04/04 09:38:14;;;;;;;11.20;7.90;;;;;;;3.82;57.22;98264.05;106372;1277;137739;-68
2022/04/04 09:40:55;;;;;;;9.80;7.10;;;;;;;3.89;57.37;98258.09;106065;1277;22626;-68
2022/04/04 09:43:22;;;;;;;9.90;6.20;;;;;;;4.02;57.39;98255.43;106052;1277;23054;-68
2022/04/04 09:45:50;;;;;;;14.20;8.30;;;;;;;4.17;57.52;98250.77;106129;1277;137132;-68
2022/04/04 09:48:17;;;;;;;10.80;7.70;;;;;;;4.35;58.26;98244.42;105771;1278;22717;-69
2022/04/04 09:50:45;;;;;;;8.90;6.80;;;;;;;4.48;57.12;98239.66;106107;1277;137586;-69
2022/04/04 09:53:14;;;;;;;13.50;7.70;;;;;;;4.55;57.16;98232.05;106177;1277;22704;-70
2022/04/04 09:55:57;;;;;;;10.10;7.40;;;;;;;4.52;56.64;98223.15;105941;1277;137571;-69
2022/04/04 09:58:25;;;;;;;;;;;;;;;4.47;56.78;98220.66;106063;1277;22567;-69
2022/04/04 10:00:55;;;;;;;10.50;6.50;;;;;;;4.45;56.22;98214.41;106086;1277;22577;-70
2022/04/04 10:03:38;;;;;;;12.50;6.50;;;;;;;4.57;56.97;98207.36;106246;1277;137695;-70
2022/04/04 10:06:20;;;;;;;9.10;6.60;;;;;;;4.78;56.86;98195.23;106173;1277;22655;-70
2022/04/04 10:08:54;;;;;;;10.00;6.10;;;;;;;4.99;56.57;98192.29;105986;1277;137259;-69
2022/04/04 10:11:22;;;;;;;8.50;6.40;;;;;;;5.14;56.57;98186.47;106296;1277;24276;-69
2022/04/04 10:13:52;;;;;;;8.20;5.50;;;;;;;5.25;55.08;98182.16;106073;1277;138053;-69
2022/04/04 10:16:22;;;;;;;8.00;4.40;;;;;;;5.37;54.42;98176.20;106504;1275;22564;-70
2022/04/04 10:18:53;;;;;;;7.50;5.00;;;;;;;5.50;54.45;98169.71;106264;1277;22266;-71
2022/04/04 10:21:25;;;;;;;7.40;4.90;;;;;;;5.80;55.12;98164.51;106086;1277;137253;-71
2022/04/04 10:23:59;;;;;;;6.50;4.70;;;;;;;6.03;53.49;98156.71;106216;1277;22541;-70
2022/04/04 10:26:33;;;;;;;5.90;4.90;;;;;;;6.29;53.60;98155.79;106003;1277;137707;-70
2022/04/04 10:29:15;;;;;;;9.70;5.10;;;;;;;6.34;51.46;98155.11;106035;1278;22559;-70
2022/04/04 10:31:54;;;;;;;6.90;5.60;;;;;;;6.22;50.99;98153.14;106051;1277;137796;-69
2022/04/04 10:34:23;;;;;;;5.50;4.90;;;;;;;6.13;51.84;98152.92;106258;1277;22618;-69
2022/04/04 10:37:06;;;;;;;9.20;6.20;;;;;;;6.15;51.60;98144.05;107299;1278;22569;-69
2022/04/04 10:39:44;;;;;;;6.40;5.20;;;;;;;6.25;52.74;98141.98;106069;1277;137505;-70
2022/04/04 10:42:36;;;;;;;8.20;5.10;;;;;;;6.23;51.83;98137.88;106539;1275;22671;-70
2022/04/04 10:45:18;;;;;;;6.60;5.30;;;;;;;6.22;51.52;98137.35;106638;1277;137962;-70
2022/04/04 10:47:46;;;;;;;7.10;5.50;;;;;;;6.37;51.69;98126.48;106501;1277;23381;-70
2022/04/04 10:50:33;;;;;;;10.20;6.40;;;;;;;6.58;52.47;98123.73;106345;1277;137297;-70
2022/04/04 10:53:02;;;;;;;8.20;5.00;;;;;;;6.88;52.16;98117.73;106387;1277;22562;-69
2022/04/04 10:55:48;;;;;;;7.70;5.40;;;;;;;6.97;49.43;98108.05;106356;1277;137863;-69
2022/04/04 10:58:29;;;;;;;8.00;5.50;;;;;;;6.82;49.62;98113.89;106160;1277;22696;-69
2022/04/04 11:01:20;;;;;;;14.50;8.60;;;;;;;6.67;49.18;98112.14;106114;1277;22563;-69
2022/04/04 11:04:01;;;;;;;11.90;6.60;;;;;;;6.66;49.46;98100.66;106604;1280;137726;-69
2022/04/04 11:09:50;;;;;;;8.90;5.30;;;;;;;7.17;49.38;98090.48;106133;1277;137267;-69
2022/04/04 11:12:22;;;;;;;6.40;5.10;;;;;;;7.31;49.20;98091.17;106094;1277;23380;-69
2022/04/04 11:14:54;;;;;;;6.90;5.00;;;;;;;7.45;48.45;98088.41;106176;1277;137151;-70
2022/04/04 11:17:33;;;;;;;8.30;5.50;;;;;;;7.61;48.41;98087.05;106179;1277;24231;-70
2022/04/04 11:20:10;;;;;;;9.80;5.40;;;;;;;7.75;46.88;98079.80;106000;1277;137265;-70
2022/04/04 11:22:55;;;;;;;8.10;5.10;;;;;;;7.86;45.81;98083.90;106096;1277;22530;-69
2022/04/04 11:25:38;;;;;;;6.80;5.00;;;;;;;7.85;46.01;98078.92;105996;1277;22640;-69
2022/04/04 11:28:31;;;;;;;7.60;4.90;;;;;;;7.83;46.57;98076.83;105991;1277;136999;-70
2022/04/04 11:31:13;;;;;;;5.30;4.80;;;;;;;7.73;46.50;98072.80;106433;1277;22630;-70
2022/04/04 11:33:54;;;;;;;6.50;5.20;;;;;;;7.65;46.05;98074.85;105853;1277;137557;-73
2022/04/04 11:36:40;;;;;;;5.20;4.60;;;;;;;7.58;46.88;98073.67;106149;1277;24224;-72
2022/04/04 11:39:22;;;;;;;5.70;4.80;;;;;;;7.54;45.76;98075.04;106087;1277;137280;-71
2022/04/04 11:41:51;;;;;;;6.30;5.30;;;;;;;7.64;45.23;98064.15;106111;1277;23320;-72
2022/04/04 11:44:34;;;;;;;5.70;5.20;;;;;;;7.64;44.95;98059.06;105933;1277;137261;-73
2022/04/04 11:47:02;;;;;;;;;;;;;;;7.57;45.39;98057.86;106327;1277;24413;-71
2022/04/04 11:49:37;;;;;;;7.50;5.90;;;;;;;7.65;44.85;98054.84;106218;1277;25368;-71
2022/04/04 11:52:09;;;;;;;7.30;5.70;;;;;;;7.56;44.93;98049.66;106342;1277;139120;-71
2022/04/04 11:54:40;;;;;;;9.50;5.50;;;;;;;7.39;45.94;98048.88;106118;1277;23352;-71
2022/04/04 11:57:23;;;;;;;5.20;4.20;;;;;;;7.31;46.34;98042.34;105858;1279;137277;-71
2022/04/04 11:59:51;;;;;;;6.70;5.60;;;;;;;7.48;45.88;98041.56;105860;1278;24238;-70
2022/04/04 12:02:23;;;;;;;8.10;5.90;;;;;;;7.50;45.76;98034.52;105672;1278;137441;-71
2022/04/04 12:05:06;;;;;;;9.00;5.70;;;;;;;7.55;46.25;98030.95;106074;1277;26493;-70